Home   Weather   Germany   Falkensee   Past weeks
Flag for Germany

Past Weather in Falkensee, Brandenburg, Germany — Yesterday and Last 2 Weeks

Currently: 63 °F. Sunny. (Weather station: Berlin-Schoenefeld, Germany). See more current weather

Past Weather in Falkensee — Graph

°F

Falkensee Temperature Yesterday

Maximum temperature yesterday: 63 °F (at 3:20 pm)
Minimum temperature yesterday: 52 °F (at 5:50 am)
Average temperature yesterday: 56 °F

High & Low Weather Summary for the Past Weeks

 TemperatureHumidityPressure
High66 °F (Sep 25, 3:20 pm)100% (Sep 20, 10:20 pm)30.30 "Hg (Sep 20, 10:20 pm)
Low37 °F (Sep 23, 6:50 am)42% (Sep 23, 4:20 pm)29.36 "Hg (Sep 27, 5:20 am)
Average53 °F80%29.89 "Hg
* Reported Sep 20 1:20 pm — Oct 5 1:20 pm, Falkensee. Weather by CustomWeather, © 2022

Note: Actual official high and low records may vary slightly from our data, if they occured in-between our weather recording intervals... More about our weather records

Falkensee Weather History for the Previous 24 Hours

Scroll right to see more
 ConditionsComfort  
Time TempWeatherWind HumidityBarometerVisibility
1:20 pm
Wed, Oct 5
63 °FSunny.8 mph68%30.04 "Hg10 mi
12:50 pm63 °FSunny.14 mph68%30.04 "Hg10 mi
11:20 am61 °FSunny.15 mph68%30.07 "Hg10 mi
10:50 am59 °FSunny.13 mph72%30.07 "Hg10 mi
10:20 am57 °FSunny.13 mph72%30.07 "Hg10 mi
9:20 am54 °FSunny.9 mph77%30.07 "Hg10 mi
7:50 am50 °FSunny.9 mph88%30.07 "Hg10 mi
7:20 am50 °FSunny.7 mph88%30.07 "Hg10 mi
6:20 am48 °FClear.8 mph94%30.07 "Hg10 mi
5:50 am46 °FClear.6 mph93%30.07 "Hg10 mi
5:20 am46 °FClear.6 mph93%30.09 "Hg10 mi
4:50 am48 °FClear.5 mph87%30.09 "Hg10 mi
4:20 am48 °FClear.6 mph87%30.09 "Hg10 mi
3:50 am48 °FClear.7 mph87%30.09 "Hg10 mi
2:50 am48 °FClear.6 mph87%30.09 "Hg10 mi
1:20 am50 °FClear.8 mph88%30.09 "Hg10 mi
12:20 am52 °FClear.9 mph82%30.12 "Hg10 mi
11:50 pm
Tue, Oct 4
52 °FClear.10 mph82%30.12 "Hg10 mi
11:20 pm52 °FClear.7 mph88%30.12 "Hg10 mi
10:50 pm52 °FClear.8 mph82%30.12 "Hg10 mi
10:20 pm54 °FClear.8 mph82%30.12 "Hg10 mi
9:20 pm54 °FClear.8 mph82%30.12 "Hg10 mi
8:50 pm55 °FClear.8 mph77%30.12 "Hg10 mi
8:20 pm55 °FClear.8 mph82%30.12 "Hg10 mi
7:50 pm55 °FClear.7 mph82%30.12 "Hg10 mi
7:20 pm55 °FClear.7 mph82%30.15 "Hg10 mi
6:50 pm57 °FClear.8 mph77%30.12 "Hg10 mi
6:20 pm59 °FSunny.8 mph72%30.12 "Hg10 mi
5:20 pm63 °FScattered clouds.10 mph64%30.12 "HgN/A
4:50 pm63 °FScattered clouds.8 mph68%30.15 "HgN/A
4:20 pm63 °FPassing clouds.7 mph64%30.15 "HgN/A
3:20 pm63 °FPartly sunny.7 mph68%30.18 "HgN/A
2:50 pm61 °FScattered clouds.7 mph72%30.18 "HgN/A
2:20 pm61 °FPartly sunny.8 mph68%30.18 "HgN/A
Weather by CustomWeather, © 2022

See weather overview